createdAt,value
2019-02-28T00:00:11.787Z,29.60
2019-02-28T00:01:12.866Z,29.60
2019-02-28T00:01:53.782Z,29.68
2019-02-28T00:02:30.858Z,29.72
2019-02-28T00:03:07.450Z,29.92
2019-02-28T00:03:43.993Z,30.14
2019-02-28T00:04:21.755Z,30.27
2019-02-28T00:04:59.245Z,30.38
2019-02-28T00:05:37.982Z,30.38
2019-02-28T00:06:14.949Z,30.49
2019-02-28T00:06:52.726Z,30.69
2019-02-28T00:07:29.135Z,30.76
2019-02-28T00:08:14.328Z,30.76
2019-02-28T00:08:53.654Z,30.89
2019-02-28T00:09:33.500Z,30.96
2019-02-28T00:10:11.437Z,31.11
2019-02-28T00:10:47.969Z,31.19
2019-02-28T00:11:31.998Z,31.23
2019-02-28T00:12:10.196Z,31.27
2019-02-28T00:12:48.079Z,31.13
2019-02-28T00:13:26.126Z,31.01
2019-02-28T00:14:03.169Z,30.97
2019-02-28T00:14:39.691Z,30.96
2019-02-28T00:15:15.879Z,30.93
2019-02-28T00:15:53.911Z,30.89
2019-02-28T00:16:30.298Z,30.87
2019-02-28T00:17:10.071Z,30.87
2019-02-28T00:17:47.314Z,30.88
2019-02-28T00:18:25.041Z,30.86
2019-02-28T00:19:02.593Z,30.85
2019-02-28T00:19:40.588Z,30.85
2019-02-28T00:20:17.523Z,30.84
2019-02-28T00:20:55.144Z,30.83
2019-02-28T00:21:32.269Z,30.82
2019-02-28T00:22:11.350Z,30.83
2019-02-28T00:22:49.305Z,30.84
2019-02-28T00:23:26.222Z,30.85
2019-02-28T00:24:02.826Z,30.83
2019-02-28T00:24:40.415Z,30.74
2019-02-28T00:25:17.224Z,30.76
2019-02-28T00:25:53.641Z,30.75
2019-02-28T00:26:29.990Z,30.75
2019-02-28T00:27:06.733Z,30.76
2019-02-28T00:27:43.316Z,30.71
2019-02-28T00:28:25.793Z,30.77
2019-02-28T00:29:02.753Z,30.81
2019-02-28T00:29:39.123Z,30.81
2019-02-28T00:30:18.804Z,30.84
2019-02-28T00:30:56.475Z,30.87
2019-02-28T00:31:33.990Z,30.91
2019-02-28T00:32:11.178Z,30.88
2019-02-28T00:32:48.332Z,30.88
2019-02-28T00:33:24.851Z,30.98
2019-02-28T00:34:04.516Z,30.98
2019-02-28T00:34:39.938Z,31.02
2019-02-28T00:35:16.485Z,31.04
2019-02-28T00:35:52.862Z,31.07
2019-02-28T00:36:29.882Z,31.09
2019-02-28T00:37:06.941Z,31.13
2019-02-28T00:37:44.379Z,31.15
2019-02-28T00:38:21.385Z,31.18
2019-02-28T00:38:59.952Z,31.23
2019-02-28T00:39:36.878Z,31.24
2019-02-28T00:40:13.299Z,31.26
2019-02-28T00:40:49.752Z,31.25
2019-02-28T00:41:26.663Z,31.26
2019-02-28T00:42:03.168Z,31.28
2019-02-28T00:42:44.447Z,31.29
2019-02-28T00:43:25.148Z,31.31
2019-02-28T00:44:01.349Z,31.32
2019-02-28T00:44:39.011Z,31.33
2019-02-28T00:45:15.592Z,31.37
2019-02-28T00:45:53.456Z,31.37
2019-02-28T00:46:30.997Z,31.35
2019-02-28T00:47:08.204Z,31.33
2019-02-28T00:47:47.561Z,31.31
2019-02-28T00:48:31.170Z,31.32
2019-02-28T00:49:07.709Z,31.25
2019-02-28T00:49:44.084Z,31.18
2019-02-28T00:50:20.603Z,31.09
2019-02-28T00:50:58.454Z,31.06
2019-02-28T00:51:38.112Z,31.02
2019-02-28T00:52:14.521Z,31.00
2019-02-28T00:52:51.086Z,30.98
2019-02-28T00:53:27.927Z,30.97
2019-02-28T00:54:04.194Z,30.90
2019-02-28T00:54:44.385Z,30.93
2019-02-28T00:55:19.216Z,30.91
2019-02-28T00:55:55.502Z,30.88
2019-02-28T00:56:35.847Z,30.88
2019-02-28T00:57:33.351Z,30.87
2019-02-28T00:58:13.124Z,30.84
2019-02-28T00:58:50.175Z,30.78
2019-02-28T00:59:27.016Z,30.74
2019-02-28T01:00:05.654Z,30.72
2019-02-28T01:01:03.590Z,30.72
2019-02-28T01:01:43.130Z,30.71
2019-02-28T01:02:21.854Z,30.67
2019-02-28T01:02:58.277Z,30.71
2019-02-28T01:03:35.183Z,30.71
2019-02-28T01:04:15.441Z,30.76
2019-02-28T01:04:53.280Z,30.77
2019-02-28T01:05:37.208Z,30.80
2019-02-28T01:06:17.187Z,30.80
2019-02-28T01:06:55.144Z,30.78
2019-02-28T01:07:31.740Z,30.81
2019-02-28T01:08:10.527Z,30.81
2019-02-28T01:08:55.704Z,30.82
2019-02-28T01:09:32.730Z,30.80
2019-02-28T01:10:11.953Z,30.77
2019-02-28T01:10:49.220Z,30.80
2019-02-28T01:11:25.834Z,30.78
2019-02-28T01:12:02.177Z,30.80
2019-02-28T01:12:46.785Z,30.82
2019-02-28T01:13:27.533Z,30.83
2019-02-28T01:14:03.482Z,30.84
2019-02-28T01:15:01.332Z,30.82
2019-02-28T01:15:37.689Z,30.89
2019-02-28T01:16:16.057Z,30.90
2019-02-28T01:16:55.294Z,30.92
2019-02-28T01:17:32.594Z,30.92
2019-02-28T01:18:11.741Z,30.95
2019-02-28T01:18:48.107Z,30.99
2019-02-28T01:19:24.805Z,31.01
2019-02-28T01:20:02.565Z,31.02
2019-02-28T01:20:42.419Z,31.06
2019-02-28T01:21:23.699Z,31.10
2019-02-28T01:22:15.754Z,31.12
2019-02-28T01:22:52.814Z,31.10
2019-02-28T01:23:30.190Z,31.09
2019-02-28T01:24:07.195Z,31.05
2019-02-28T01:24:44.717Z,31.15
2019-02-28T01:25:23.161Z,31.15
2019-02-28T01:26:16.838Z,31.14
2019-02-28T01:26:53.439Z,31.14
2019-02-28T01:27:31.129Z,31.18
2019-02-28T01:28:09.405Z,31.17
2019-02-28T01:28:45.796Z,31.19
2019-02-28T01:29:22.197Z,31.21
2019-02-28T01:30:00.401Z,31.22
2019-02-28T01:30:40.607Z,31.22
2019-02-28T01:31:17.151Z,31.21
2019-02-28T01:31:53.583Z,31.21
2019-02-28T01:32:31.371Z,31.22
2019-02-28T01:33:08.787Z,31.20
2019-02-28T01:33:45.185Z,31.20
2019-02-28T01:34:22.914Z,31.18
2019-02-28T01:35:05.874Z,31.15
2019-02-28T01:35:40.902Z,31.19
2019-02-28T01:36:16.975Z,31.22
2019-02-28T01:36:53.513Z,31.25
2019-02-28T01:37:32.621Z,31.28
2019-02-28T01:38:09.626Z,31.30
2019-02-28T01:38:46.035Z,31.36
2019-02-28T01:39:24.342Z,31.39
2019-02-28T01:40:05.334Z,31.40
2019-02-28T01:40:42.646Z,31.41
2019-02-28T01:41:19.738Z,31.41
2019-02-28T01:41:56.417Z,31.42
2019-02-28T01:42:34.211Z,31.43
2019-02-28T01:43:11.953Z,31.47
2019-02-28T01:43:49.438Z,31.48
2019-02-28T01:44:27.234Z,31.45
2019-02-28T01:45:10.063Z,31.50
2019-02-28T01:45:47.131Z,31.55
2019-02-28T01:46:26.008Z,31.65
2019-02-28T01:47:03.769Z,31.67
2019-02-28T01:47:40.790Z,31.74
2019-02-28T01:48:17.043Z,31.91
2019-02-28T01:48:54.528Z,32.00
2019-02-28T01:49:31.550Z,32.05
2019-02-28T01:50:10.799Z,32.04
2019-02-28T01:50:47.072Z,32.07
2019-02-28T01:51:24.721Z,32.17
2019-02-28T01:52:01.072Z,32.24
2019-02-28T01:52:37.423Z,32.24
2019-02-28T01:53:18.717Z,32.29
2019-02-28T01:53:56.971Z,32.28
2019-02-28T01:54:33.437Z,32.27
2019-02-28T01:55:10.091Z,32.20
2019-02-28T01:55:47.314Z,32.18
2019-02-28T01:56:24.339Z,32.12
2019-02-28T01:57:12.979Z,32.07
2019-02-28T01:57:49.325Z,32.03
2019-02-28T01:58:28.256Z,31.95
2019-02-28T01:59:04.904Z,31.88
2019-02-28T01:59:41.322Z,31.87
2019-02-28T02:00:20.289Z,31.86
2019-02-28T02:00:58.192Z,31.88
2019-02-28T02:01:55.894Z,31.87
2019-02-28T02:02:43.171Z,31.88
2019-02-28T02:03:40.655Z,31.87
2019-02-28T02:04:17.725Z,31.93
2019-02-28T02:04:56.767Z,32.00
2019-02-28T02:05:35.046Z,32.02
2019-02-28T02:06:11.536Z,32.03
2019-02-28T02:06:47.994Z,32.05
2019-02-28T02:07:24.929Z,32.05
2019-02-28T02:08:06.478Z,32.01
2019-02-28T02:09:14.551Z,31.98
2019-02-28T02:09:51.170Z,31.96
2019-02-28T02:10:30.188Z,31.93
2019-02-28T02:11:19.959Z,31.91
2019-02-28T02:11:58.900Z,31.93
2019-02-28T02:12:35.608Z,32.04
2019-02-28T02:13:12.119Z,32.28
2019-02-28T02:13:48.661Z,32.38
2019-02-28T02:14:26.289Z,32.49
2019-02-28T02:15:03.880Z,32.60
2019-02-28T02:15:40.914Z,32.69
2019-02-28T02:16:17.807Z,32.85
2019-02-28T02:16:54.949Z,32.99
2019-02-28T02:17:35.482Z,33.13
2019-02-28T02:18:10.993Z,33.31
2019-02-28T02:18:48.149Z,33.46
2019-02-28T02:19:25.207Z,33.61
2019-02-28T02:20:01.788Z,33.70
2019-02-28T02:20:38.862Z,33.77
2019-02-28T02:21:17.048Z,33.86
2019-02-28T02:21:56.514Z,33.96
2019-02-28T02:22:33.170Z,33.97
2019-02-28T02:23:10.625Z,34.03
2019-02-28T02:23:49.567Z,34.10
2019-02-28T02:24:27.943Z,34.13
2019-02-28T02:25:13.739Z,34.21
2019-02-28T02:25:50.257Z,34.26
2019-02-28T02:26:29.345Z,34.25
2019-02-28T02:27:05.789Z,34.32
2019-02-28T02:27:42.359Z,34.39
2019-02-28T02:28:18.729Z,34.46
2019-02-28T02:29:00.859Z,34.52
2019-02-28T02:29:41.060Z,34.61
2019-02-28T02:30:23.732Z,34.70
2019-02-28T02:31:01.698Z,34.81
2019-02-28T02:31:43.534Z,34.91
2019-02-28T02:32:21.687Z,34.99
2019-02-28T02:32:59.336Z,35.02
2019-02-28T02:33:37.318Z,34.94
2019-02-28T02:34:13.614Z,34.82
2019-02-28T02:34:51.516Z,34.70
2019-02-28T02:35:29.234Z,34.63
2019-02-28T02:36:05.551Z,34.57
2019-02-28T02:36:44.717Z,34.52
2019-02-28T02:37:26.342Z,34.47
2019-02-28T02:38:03.515Z,34.45
2019-02-28T02:38:41.813Z,34.35
2019-02-28T02:39:19.299Z,34.34
2019-02-28T02:39:56.803Z,34.32
2019-02-28T02:40:33.057Z,34.30
2019-02-28T02:41:11.336Z,34.30
2019-02-28T02:41:47.633Z,34.31
2019-02-28T02:42:23.958Z,34.29
2019-02-28T02:43:00.376Z,34.27
2019-02-28T02:43:41.525Z,34.28
2019-02-28T02:44:21.173Z,34.27
2019-02-28T02:44:58.511Z,34.27
2019-02-28T02:45:41.661Z,34.27
2019-02-28T02:46:20.197Z,34.26
2019-02-28T02:46:56.998Z,34.23
2019-02-28T02:47:34.807Z,34.21
2019-02-28T02:48:11.317Z,34.19
2019-02-28T02:48:48.735Z,34.14
2019-02-28T02:49:26.489Z,34.12
2019-02-28T02:50:04.097Z,34.09
2019-02-28T02:50:42.176Z,34.06
2019-02-28T02:51:19.745Z,34.02
2019-02-28T02:51:58.671Z,33.99
2019-02-28T02:52:39.887Z,33.97
2019-02-28T02:53:18.366Z,33.93
2019-02-28T02:53:57.435Z,33.91
2019-02-28T02:54:52.083Z,33.83
2019-02-28T02:55:31.133Z,33.83
2019-02-28T02:56:07.698Z,33.76
2019-02-28T02:56:45.499Z,33.65
2019-02-28T02:57:33.163Z,33.63
2019-02-28T02:58:12.218Z,33.64
2019-02-28T02:58:53.954Z,33.60
2019-02-28T02:59:37.474Z,33.56
2019-02-28T03:00:17.444Z,33.53
2019-02-28T03:00:53.687Z,33.51
2019-02-28T03:01:30.086Z,33.49
2019-02-28T03:02:09.497Z,33.43
2019-02-28T03:03:06.151Z,33.45
2019-02-28T03:03:44.568Z,33.45
2019-02-28T03:04:24.888Z,33.44
2019-02-28T03:05:01.152Z,33.43
2019-02-28T03:05:39.804Z,33.44
2019-02-28T03:06:17.295Z,33.45
2019-02-28T03:06:53.570Z,33.43
2019-02-28T03:07:32.049Z,33.40
2019-02-28T03:08:08.441Z,33.38
2019-02-28T03:08:44.921Z,33.39
2019-02-28T03:09:21.357Z,33.37
2019-02-28T03:10:03.537Z,33.39
2019-02-28T03:10:41.439Z,33.45
2019-02-28T03:11:26.549Z,33.44
2019-02-28T03:12:02.923Z,33.45
2019-02-28T03:12:39.257Z,33.46
2019-02-28T03:13:20.191Z,33.48
2019-02-28T03:14:00.180Z,33.49
2019-02-28T03:14:39.770Z,33.52
2019-02-28T03:15:24.943Z,33.54
2019-02-28T03:15:59.526Z,33.55
2019-02-28T03:16:37.322Z,33.57
2019-02-28T03:17:24.329Z,33.59
2019-02-28T03:18:00.826Z,33.60
2019-02-28T03:18:39.896Z,33.62
2019-02-28T03:19:19.717Z,33.61
2019-02-28T03:19:57.491Z,33.65
2019-02-28T03:20:35.440Z,33.67
2019-02-28T03:21:15.188Z,33.71
2019-02-28T03:21:52.832Z,33.77
2019-02-28T03:22:30.366Z,33.83
2019-02-28T03:23:17.300Z,33.89
2019-02-28T03:23:59.626Z,33.96
2019-02-28T03:24:50.703Z,34.04
2019-02-28T03:25:35.490Z,34.09
2019-02-28T03:26:11.988Z,34.27
2019-02-28T03:26:48.626Z,34.28
2019-02-28T03:27:24.994Z,34.26
2019-02-28T03:28:32.021Z,34.25
2019-02-28T03:29:07.908Z,34.27
2019-02-28T03:29:44.971Z,34.23
2019-02-28T03:30:31.023Z,34.25
2019-02-28T03:31:16.001Z,34.26
2019-02-28T03:31:56.556Z,34.24
2019-02-28T03:32:39.286Z,34.19
2019-02-28T03:33:24.275Z,34.22
2019-02-28T03:33:55.319Z,34.23
2019-02-28T03:34:32.926Z,34.25
2019-02-28T03:35:10.693Z,34.27
2019-02-28T03:35:56.221Z,34.29
2019-02-28T03:36:32.537Z,34.34
2019-02-28T03:37:12.270Z,34.36
2019-02-28T03:37:50.215Z,34.40
2019-02-28T03:38:26.715Z,34.41
2019-02-28T03:39:03.229Z,34.44
2019-02-28T03:39:44.283Z,34.44
2019-02-28T03:40:20.663Z,34.47
2019-02-28T03:40:57.911Z,34.46
2019-02-28T03:41:34.314Z,34.47
2019-02-28T03:42:10.673Z,34.47
2019-02-28T03:42:49.221Z,34.47
2019-02-28T03:43:28.063Z,34.47
2019-02-28T03:44:04.512Z,34.47
2019-02-28T03:44:41.063Z,34.49
2019-02-28T03:45:17.536Z,34.50
2019-02-28T03:45:53.941Z,34.50
2019-02-28T03:46:30.296Z,34.50
2019-02-28T03:47:08.514Z,34.46
2019-02-28T03:47:47.888Z,34.45
2019-02-28T03:48:25.414Z,34.44
2019-02-28T03:49:01.867Z,34.42
2019-02-28T03:49:38.179Z,34.42
2019-02-28T03:50:21.892Z,34.43
2019-02-28T03:50:57.166Z,34.43
2019-02-28T03:51:35.033Z,34.46
2019-02-28T03:52:11.384Z,34.47
2019-02-28T03:52:51.961Z,34.51
2019-02-28T03:53:29.491Z,34.54
2019-02-28T03:54:06.440Z,34.60
2019-02-28T03:54:47.811Z,34.65
2019-02-28T03:55:28.361Z,34.69
2019-02-28T03:56:14.380Z,34.76
2019-02-28T03:56:52.878Z,34.81
2019-02-28T03:57:29.424Z,34.85
2019-02-28T03:58:06.132Z,34.90
2019-02-28T03:58:47.261Z,34.93
2019-02-28T03:59:25.907Z,34.96
2019-02-28T04:00:02.277Z,34.98
2019-02-28T04:00:38.521Z,34.98
2019-02-28T04:01:15.398Z,35.01
2019-02-28T04:01:51.746Z,35.00
2019-02-28T04:02:28.315Z,35.02
2019-02-28T04:03:04.750Z,35.02
2019-02-28T04:03:59.654Z,35.05
2019-02-28T04:04:36.820Z,35.06
2019-02-28T04:05:13.281Z,35.06
2019-02-28T04:05:49.730Z,35.06
2019-02-28T04:06:26.291Z,35.06
2019-02-28T04:07:02.971Z,35.06
2019-02-28T04:07:39.548Z,35.09
2019-02-28T04:08:16.362Z,35.09
2019-02-28T04:09:07.037Z,35.12
2019-02-28T04:09:43.804Z,35.11
2019-02-28T04:10:22.037Z,35.15
2019-02-28T04:10:56.520Z,35.14
2019-02-28T04:11:35.481Z,35.17
2019-02-28T04:12:11.606Z,35.17
2019-02-28T04:12:47.898Z,35.18
2019-02-28T04:13:24.300Z,35.18
2019-02-28T04:14:00.874Z,35.19
2019-02-28T04:14:37.248Z,35.19
2019-02-28T04:15:19.285Z,35.18
2019-02-28T04:16:08.675Z,35.17
2019-02-28T04:16:35.572Z,35.18
2019-02-28T04:17:11.944Z,35.20
2019-02-28T04:17:55.799Z,35.22
2019-02-28T04:18:32.296Z,35.24
2019-02-28T04:19:08.639Z,35.25
2019-02-28T04:19:49.805Z,35.27
2019-02-28T04:20:36.082Z,35.30
2019-02-28T04:21:18.100Z,35.34
2019-02-28T04:21:55.085Z,35.37
2019-02-28T04:22:31.389Z,35.40
2019-02-28T04:23:07.885Z,35.40
2019-02-28T04:23:48.819Z,35.43
2019-02-28T04:24:28.859Z,35.45
2019-02-28T04:25:26.498Z,35.44
2019-02-28T04:26:02.843Z,35.47
2019-02-28T04:26:39.279Z,35.50
2019-02-28T04:27:16.557Z,35.54
2019-02-28T04:27:52.963Z,35.58
2019-02-28T04:28:29.102Z,35.60
2019-02-28T04:29:05.504Z,35.64
2019-02-28T04:29:43.024Z,35.68
2019-02-28T04:30:19.456Z,35.72
2019-02-28T04:30:55.837Z,35.75
2019-02-28T04:31:33.295Z,35.82
2019-02-28T04:32:14.312Z,35.85
2019-02-28T04:32:50.911Z,35.89
2019-02-28T04:33:28.097Z,35.92
2019-02-28T04:34:16.092Z,35.94
2019-02-28T04:34:54.415Z,35.96
2019-02-28T04:35:36.312Z,35.99
2019-02-28T04:36:15.555Z,36.02
2019-02-28T04:36:51.870Z,36.07
2019-02-28T04:37:29.080Z,36.11
2019-02-28T04:38:06.933Z,36.19
2019-02-28T04:38:43.368Z,36.34
2019-02-28T04:39:38.396Z,36.42
2019-02-28T04:40:24.009Z,36.56
2019-02-28T04:41:00.909Z,36.54
2019-02-28T04:41:38.618Z,36.54
2019-02-28T04:42:29.074Z,36.54
2019-02-28T04:43:07.274Z,36.50
2019-02-28T04:43:50.266Z,36.62
2019-02-28T04:44:29.635Z,36.75
2019-02-28T04:45:06.396Z,36.84
2019-02-28T04:45:42.880Z,36.91
2019-02-28T04:46:24.033Z,36.95
2019-02-28T04:47:06.767Z,37.00
2019-02-28T04:47:43.365Z,37.06
2019-02-28T04:48:40.995Z,37.08
2019-02-28T04:49:21.779Z,37.12
2019-02-28T04:49:57.715Z,37.10
2019-02-28T04:50:34.052Z,37.11
2019-02-28T04:51:11.812Z,37.13
2019-02-28T04:52:08.030Z,37.15
2019-02-28T04:52:50.513Z,37.18
2019-02-28T04:53:33.340Z,37.17
2019-02-28T04:54:12.666Z,37.20
2019-02-28T04:55:08.257Z,37.13
2019-02-28T04:55:45.836Z,37.17
2019-02-28T04:56:23.410Z,37.15
2019-02-28T04:57:02.217Z,37.13
2019-02-28T04:57:38.521Z,37.16
2019-02-28T04:58:14.996Z,37.19
2019-02-28T04:58:53.017Z,37.20
2019-02-28T04:59:44.816Z,37.16
2019-02-28T05:00:22.400Z,37.13
2019-02-28T05:00:58.790Z,37.17
2019-02-28T05:01:45.288Z,37.19
2019-02-28T05:02:21.464Z,37.23
2019-02-28T05:03:03.769Z,37.26
2019-02-28T05:03:52.680Z,37.30
2019-02-28T05:04:36.128Z,37.31
2019-02-28T05:05:21.329Z,37.37
2019-02-28T05:05:59.357Z,37.44
2019-02-28T05:06:37.976Z,37.50
2019-02-28T05:07:14.447Z,37.58
2019-02-28T05:08:11.627Z,37.64
2019-02-28T05:08:49.185Z,37.67
2019-02-28T05:09:27.073Z,37.69
2019-02-28T05:10:03.522Z,37.75
2019-02-28T05:10:40.046Z,37.76
2019-02-28T05:11:18.736Z,37.79
2019-02-28T05:11:55.063Z,37.79
2019-02-28T05:12:54.288Z,37.77
2019-02-28T05:13:33.866Z,37.80
2019-02-28T05:14:13.928Z,37.69
2019-02-28T05:14:55.241Z,37.73
2019-02-28T05:15:31.265Z,37.72
2019-02-28T05:16:09.364Z,37.68
2019-02-28T05:16:47.474Z,37.71
2019-02-28T05:17:24.844Z,37.73
2019-02-28T05:18:01.261Z,37.69
2019-02-28T05:18:38.763Z,37.75
2019-02-28T05:19:15.230Z,37.77
2019-02-28T05:19:52.667Z,37.79
2019-02-28T05:20:30.574Z,37.78
2019-02-28T05:21:06.907Z,37.76
2019-02-28T05:21:44.525Z,37.75
2019-02-28T05:22:21.027Z,37.76
2019-02-28T05:23:08.645Z,37.80
2019-02-28T05:23:44.991Z,37.80
2019-02-28T05:24:23.204Z,37.81
2019-02-28T05:25:01.073Z,37.82
2019-02-28T05:25:42.082Z,37.85
2019-02-28T05:26:26.123Z,37.87
2019-02-28T05:27:01.415Z,37.79
2019-02-28T05:27:38.832Z,37.65
2019-02-28T05:28:15.192Z,37.69
2019-02-28T05:28:53.996Z,37.70
2019-02-28T05:29:30.489Z,37.71
2019-02-28T05:30:26.428Z,37.72
2019-02-28T05:31:24.166Z,37.73
2019-02-28T05:32:19.109Z,37.76
2019-02-28T05:32:55.411Z,37.75
2019-02-28T05:33:34.544Z,37.64
2019-02-28T05:34:13.201Z,37.68
2019-02-28T05:34:52.148Z,37.66
2019-02-28T05:35:28.589Z,37.61
2019-02-28T05:36:04.757Z,37.51
2019-02-28T05:36:42.158Z,37.51
2019-02-28T05:37:18.543Z,37.50
2019-02-28T05:37:56.445Z,37.53
2019-02-28T05:38:32.932Z,37.48
2019-02-28T05:39:16.895Z,37.51
2019-02-28T05:39:53.280Z,37.48
2019-02-28T05:40:30.637Z,37.48
2019-02-28T05:41:06.983Z,37.51
2019-02-28T05:41:49.124Z,37.46
2019-02-28T05:42:25.069Z,37.47
2019-02-28T05:43:06.424Z,37.47
2019-02-28T05:43:42.928Z,37.49
2019-02-28T05:44:21.298Z,37.48
2019-02-28T05:44:57.478Z,37.49
2019-02-28T05:45:36.881Z,37.49
2019-02-28T05:46:14.738Z,37.49
2019-02-28T05:47:01.043Z,37.50
2019-02-28T05:47:46.179Z,37.48
2019-02-28T05:48:15.596Z,37.52
2019-02-28T05:48:54.705Z,37.53
2019-02-28T05:49:31.126Z,37.57
2019-02-28T05:50:07.694Z,37.64
2019-02-28T05:50:53.276Z,37.69
2019-02-28T05:51:33.654Z,37.72
2019-02-28T05:52:09.835Z,37.74
2019-02-28T05:52:46.295Z,37.77
2019-02-28T05:53:22.670Z,37.79
2019-02-28T05:54:01.392Z,37.73
2019-02-28T05:54:38.745Z,37.70
2019-02-28T05:55:15.194Z,37.72
2019-02-28T05:55:58.919Z,37.73
2019-02-28T05:56:34.079Z,37.74
2019-02-28T05:57:15.407Z,37.72
2019-02-28T05:57:56.575Z,37.73
2019-02-28T05:58:32.860Z,37.74
2019-02-28T05:59:11.270Z,37.76
2019-02-28T05:59:48.364Z,37.80
2019-02-28T06:00:25.461Z,37.84
2019-02-28T06:01:05.560Z,37.83
2019-02-28T06:01:43.527Z,37.84
2019-02-28T06:02:31.811Z,37.86
2019-02-28T06:03:13.228Z,37.86
2019-02-28T06:03:49.663Z,37.84
2019-02-28T06:04:25.842Z,37.82
2019-02-28T06:05:02.341Z,37.80
2019-02-28T06:05:43.438Z,37.84
2019-02-28T06:06:20.143Z,37.75
2019-02-28T06:07:03.984Z,37.79
2019-02-28T06:07:41.900Z,37.77
2019-02-28T06:08:20.684Z,37.78
2019-02-28T06:08:58.227Z,37.75
2019-02-28T06:09:34.597Z,37.60
2019-02-28T06:10:11.350Z,37.50
2019-02-28T06:10:47.702Z,37.45
2019-02-28T06:11:25.187Z,37.39
2019-02-28T06:12:03.501Z,37.34
2019-02-28T06:12:43.670Z,37.30
2019-02-28T06:13:22.252Z,37.26
2019-02-28T06:13:58.469Z,37.13
2019-02-28T06:14:35.697Z,37.10
2019-02-28T06:15:12.598Z,37.06
2019-02-28T06:15:49.086Z,37.12
2019-02-28T06:16:25.428Z,37.18
2019-02-28T06:17:05.251Z,37.22
2019-02-28T06:17:41.629Z,37.29
2019-02-28T06:18:21.052Z,37.32
2019-02-28T06:18:58.116Z,37.36
2019-02-28T06:19:34.514Z,37.40
2019-02-28T06:20:16.554Z,37.45
2019-02-28T06:20:52.258Z,37.47
2019-02-28T06:21:40.723Z,37.51
2019-02-28T06:22:18.450Z,37.52
2019-02-28T06:22:55.381Z,37.50
2019-02-28T06:23:33.057Z,37.49
2019-02-28T06:24:12.735Z,37.46
2019-02-28T06:24:53.177Z,37.42
2019-02-28T06:25:30.962Z,37.31
2019-02-28T06:26:08.034Z,37.29
2019-02-28T06:26:44.389Z,37.18
2019-02-28T06:27:24.244Z,37.12
2019-02-28T06:28:00.735Z,37.07
2019-02-28T06:28:37.710Z,37.11
2019-02-28T06:29:14.273Z,37.17
2019-02-28T06:29:50.572Z,37.24
2019-02-28T06:30:27.790Z,37.26
2019-02-28T06:31:04.846Z,37.29
2019-02-28T06:31:41.335Z,37.34
2019-02-28T06:32:23.260Z,37.31
2019-02-28T06:32:59.600Z,37.36
2019-02-28T06:33:37.186Z,37.38
2019-02-28T06:34:13.624Z,37.39
2019-02-28T06:34:52.297Z,37.43
2019-02-28T06:35:34.984Z,37.40
2019-02-28T06:36:11.224Z,37.29
2019-02-28T06:36:47.570Z,37.17
2019-02-28T06:37:26.289Z,37.09
2019-02-28T06:38:06.700Z,36.97
2019-02-28T06:38:54.545Z,36.96
2019-02-28T06:39:31.395Z,36.94
2019-02-28T06:40:09.196Z,36.90
2019-02-28T06:40:45.730Z,36.92
2019-02-28T06:41:23.147Z,36.94
2019-02-28T06:42:07.972Z,36.97
2019-02-28T06:42:46.768Z,37.02
2019-02-28T06:43:24.045Z,37.10
2019-02-28T06:44:00.365Z,37.14
2019-02-28T06:44:42.885Z,37.16
2019-02-28T06:45:20.326Z,37.24
2019-02-28T06:45:56.647Z,37.28
2019-02-28T06:46:34.255Z,37.24
2019-02-28T06:47:21.447Z,37.22
2019-02-28T06:48:00.814Z,37.27
2019-02-28T06:48:37.186Z,37.32
2019-02-28T06:49:14.573Z,37.38
2019-02-28T06:49:53.818Z,37.42
2019-02-28T06:50:30.534Z,37.45
2019-02-28T06:51:06.858Z,37.45
2019-02-28T06:51:45.025Z,37.50
2019-02-28T06:52:25.240Z,37.55
2019-02-28T06:53:03.512Z,37.58
2019-02-28T06:53:42.017Z,37.63
2019-02-28T06:54:21.344Z,37.66
2019-02-28T06:55:02.164Z,37.70
2019-02-28T06:55:50.567Z,37.63
2019-02-28T06:56:31.923Z,37.56
2019-02-28T06:57:08.171Z,37.44
2019-02-28T06:57:44.530Z,37.37
2019-02-28T06:58:21.139Z,37.31
2019-02-28T06:59:04.931Z,37.27
2019-02-28T06:59:41.113Z,37.24
2019-02-28T07:00:25.772Z,37.20
2019-02-28T07:01:03.033Z,37.18
2019-02-28T07:01:46.328Z,37.18
2019-02-28T07:02:23.985Z,37.18
2019-02-28T07:03:03.364Z,37.26
2019-02-28T07:03:42.502Z,37.31
2019-02-28T07:04:18.708Z,37.37
2019-02-28T07:04:56.137Z,37.38
2019-02-28T07:05:33.864Z,37.41
2019-02-28T07:06:12.203Z,37.42
2019-02-28T07:06:52.257Z,37.38
2019-02-28T07:07:29.504Z,37.35
2019-02-28T07:08:05.815Z,37.28
2019-02-28T07:08:46.686Z,37.17
2019-02-28T07:09:25.775Z,37.10
2019-02-28T07:10:02.974Z,36.97
2019-02-28T07:10:48.384Z,36.87
2019-02-28T07:11:23.714Z,36.82
2019-02-28T07:12:02.826Z,36.74
2019-02-28T07:13:04.495Z,36.71
2019-02-28T07:13:40.688Z,36.63
2019-02-28T07:14:18.462Z,36.54
2019-02-28T07:14:56.339Z,36.57
2019-02-28T07:15:40.568Z,36.57
2019-02-28T07:16:18.420Z,36.52
2019-02-28T07:16:57.279Z,36.46
2019-02-28T07:17:33.743Z,36.38
2019-02-28T07:18:18.804Z,36.34
2019-02-28T07:18:59.082Z,36.30
2019-02-28T07:19:35.279Z,36.27
2019-02-28T07:20:16.853Z,36.24
2019-02-28T07:20:53.412Z,36.20
2019-02-28T07:21:31.580Z,36.19
2019-02-28T07:22:09.274Z,36.18
2019-02-28T07:22:58.245Z,36.16
2019-02-28T07:23:35.020Z,36.15
2019-02-28T07:24:20.850Z,36.14
2019-02-28T07:24:59.592Z,36.20
2019-02-28T07:25:56.865Z,36.13
2019-02-28T07:26:33.645Z,36.11
2019-02-28T07:27:11.990Z,36.00
2019-02-28T07:27:54.102Z,36.00
2019-02-28T07:28:48.751Z,35.98
2019-02-28T07:29:26.028Z,35.95
2019-02-28T07:30:05.805Z,35.89
2019-02-28T07:30:50.348Z,35.89
2019-02-28T07:31:25.566Z,35.89
2019-02-28T07:32:04.316Z,35.88
2019-02-28T07:32:41.686Z,35.89
2019-02-28T07:33:18.042Z,35.91
2019-02-28T07:33:54.563Z,35.95
2019-02-28T07:34:36.947Z,35.95
2019-02-28T07:35:15.665Z,35.96
2019-02-28T07:35:54.715Z,35.94
2019-02-28T07:36:31.144Z,35.96
2019-02-28T07:37:07.401Z,35.97
2019-02-28T07:37:43.706Z,36.09
2019-02-28T07:38:20.357Z,36.20
2019-02-28T07:39:01.249Z,36.19
2019-02-28T07:39:41.828Z,36.17
2019-02-28T07:40:18.190Z,36.13
2019-02-28T07:40:55.735Z,36.14
2019-02-28T07:41:45.059Z,36.12
2019-02-28T07:42:21.261Z,36.10
2019-02-28T07:43:17.300Z,36.06
2019-02-28T07:44:24.039Z,36.06
2019-02-28T07:45:03.364Z,36.02
2019-02-28T07:46:42.271Z,35.99
2019-02-28T07:47:39.924Z,36.02
2019-02-28T07:48:17.802Z,35.97
2019-02-28T07:49:01.589Z,35.94
2019-02-28T07:49:41.927Z,35.94
2019-02-28T07:50:21.778Z,35.98
2019-02-28T07:50:59.293Z,35.98
2019-02-28T07:51:36.399Z,36.02
2019-02-28T07:52:20.473Z,36.11
2019-02-28T07:52:59.475Z,36.10
2019-02-28T07:53:35.697Z,36.05
2019-02-28T07:54:15.959Z,36.02
2019-02-28T07:54:55.520Z,36.00
2019-02-28T07:55:32.332Z,35.94
2019-02-28T07:56:08.750Z,35.93
2019-02-28T07:56:45.392Z,35.90
2019-02-28T07:57:28.228Z,35.87
2019-02-28T07:58:16.835Z,35.84
2019-02-28T07:59:00.570Z,35.81
2019-02-28T07:59:42.377Z,35.83
2019-02-28T08:00:48.465Z,35.88
2019-02-28T08:01:27.754Z,35.94
2019-02-28T08:02:19.537Z,36.08
2019-02-28T08:02:56.047Z,36.14
2019-02-28T08:03:32.535Z,36.17
2019-02-28T12:57:31.510Z,32.86
2019-02-28T12:58:11.597Z,32.82
2019-02-28T12:59:01.390Z,32.82
2019-02-28T12:59:41.924Z,32.84
2019-02-28T13:00:46.498Z,32.84
2019-02-28T13:01:23.147Z,32.84
2019-02-28T13:02:08.478Z,32.85
2019-02-28T13:02:55.193Z,32.86
2019-02-28T13:03:33.001Z,32.87
2019-02-28T13:04:12.903Z,32.87
2019-02-28T13:04:50.889Z,32.87
2019-02-28T13:05:31.055Z,32.86
2019-02-28T13:06:08.532Z,32.83
2019-02-28T13:06:48.475Z,32.84
2019-02-28T13:07:30.497Z,32.82
2019-02-28T13:08:05.997Z,32.81
2019-02-28T13:08:45.046Z,32.80
2019-02-28T13:09:30.188Z,32.79
2019-02-28T13:10:07.463Z,32.80
2019-02-28T13:10:44.444Z,32.81
2019-02-28T13:11:21.542Z,32.80
2019-02-28T13:12:00.270Z,32.80
2019-02-28T13:12:48.972Z,32.80
2019-02-28T13:14:41.835Z,32.77
2019-02-28T13:15:18.692Z,32.75
2019-02-28T13:15:57.376Z,32.74
2019-02-28T13:16:40.997Z,32.74
2019-02-28T13:17:31.765Z,32.73
2019-02-28T13:18:10.373Z,32.71
2019-02-28T13:19:00.916Z,32.70
2019-02-28T13:19:38.408Z,32.70
2019-02-28T13:20:19.755Z,32.70
2019-02-28T13:21:06.167Z,32.70
2019-02-28T13:21:59.637Z,32.71
2019-02-28T13:22:36.787Z,32.70
2019-02-28T13:23:17.166Z,32.72
2019-02-28T13:24:13.623Z,32.72